Time;durP1;ratioP1;P1;durP2;ratioP2;P2;SDS_P1;SDS_P2;PMS_P1;PMS_P2;Temp;Humidity;BMP_temperature;BMP_pressure;BME280_temperature;BME280_humidity;BME280_pressure;Samples;Min_cycle;Max_cycle;Signal;HPM_P1;HPM_P2
2021/07/17 00:00:41;;;;;;;;;10.00;10.00;;;;;23.36;52.17;102023.16;5099285;27;56239;-72
2021/07/17 00:03:06;;;;;;;;;10.00;8.00;;;;;23.37;52.20;102026.72;5047514;27;46661;-72
2021/07/17 00:05:32;;;;;;;;;12.25;9.00;;;;;23.37;51.95;102024.06;5099461;27;45464;-72
2021/07/17 00:07:58;;;;;;;;;13.00;9.00;;;;;23.38;52.30;102029.34;5081850;27;45280;-72
2021/07/17 00:10:47;;;;;;;;;10.25;9.25;;;;;23.36;51.66;102022.31;5099091;27;55875;-72
2021/07/17 00:13:13;;;;;;;;;8.50;8.25;;;;;23.36;51.92;102015.22;5092642;27;45867;-72
2021/07/17 00:15:38;;;;;;;;;12.75;9.00;;;;;23.36;51.88;102025.81;5099476;27;45407;-72
2021/07/17 00:18:03;;;;;;;;;9.25;9.25;;;;;23.36;51.89;102027.59;5099721;27;45425;-72
2021/07/17 00:20:29;;;;;;;;;10.00;8.75;;;;;23.35;51.92;102032.00;5099403;27;46121;-72
2021/07/17 00:22:54;;;;;;;;;9.25;8.75;;;;;23.35;52.06;102031.16;5098936;27;45461;-72
2021/07/17 00:25:20;;;;;;;;;14.00;9.00;;;;;23.34;51.78;102024.97;5099674;27;45275;-72
2021/07/17 00:27:46;;;;;;;;;11.00;9.50;;;;;23.34;52.04;102029.38;5098479;27;45485;-72
2021/07/17 00:30:11;;;;;;;;;9.25;9.00;;;;;23.32;51.90;102029.41;5081010;27;45801;-72
2021/07/17 00:32:37;;;;;;;;;10.25;9.00;;;;;23.33;51.52;102036.47;5064723;27;45337;-71
2021/07/17 00:35:04;;;;;;;;;10.75;8.75;;;;;23.33;51.99;102031.16;5099307;27;45233;-72
2021/07/17 00:37:29;;;;;;;;;10.25;9.75;;;;;23.34;51.47;102026.72;5064370;27;45294;-72
2021/07/17 00:39:54;;;;;;;;;10.25;9.50;;;;;23.33;51.52;102031.16;5098568;27;57992;-72
2021/07/17 00:42:20;;;;;;;;;9.00;8.50;;;;;23.34;51.71;102024.06;5098790;27;56207;-72
2021/07/17 00:44:45;;;;;;;;;11.25;9.50;;;;;23.33;51.54;102027.63;5098102;27;55236;-72
2021/07/17 00:47:11;;;;;;;;;11.00;11.00;;;;;23.32;51.48;102029.41;5098795;27;49350;-72
2021/07/17 00:49:37;;;;;;;;;9.50;8.25;;;;;23.32;51.68;102026.75;5062784;27;45288;-72
2021/07/17 00:52:03;;;;;;;;;10.00;10.00;;;;;23.31;51.48;102026.75;5080660;27;45432;-72
2021/07/17 00:54:28;;;;;;;;;8.75;8.75;;;;;23.32;52.17;102028.53;5080446;27;45361;-72
2021/07/17 00:56:54;;;;;;;;;9.75;7.25;;;;;23.32;51.59;102025.88;5064020;27;45429;-72
2021/07/17 00:59:21;;;;;;;;;9.00;7.50;;;;;23.31;51.72;102032.94;5079637;27;45334;-72
2021/07/17 01:01:50;;;;;;;;;9.75;9.75;;;;;23.30;51.82;102031.19;5080432;27;45582;-72
2021/07/17 01:04:16;;;;;;;;;9.25;9.25;;;;;23.31;51.30;102038.22;5098428;27;45232;-72
2021/07/17 01:06:41;;;;;;;;;12.50;8.75;;;;;23.30;51.72;102035.59;5099075;27;45419;-72
2021/07/17 01:09:07;;;;;;;;;10.75;9.50;;;;;23.30;51.46;102036.50;5062906;27;58808;-72
2021/07/17 01:11:32;;;;;;;;;9.50;9.50;;;;;23.30;51.20;102035.59;5098021;27;58851;-72
2021/07/17 01:13:58;;;;;;;;;9.25;9.25;;;;;23.29;51.52;102031.22;5098716;27;45363;-72
2021/07/17 01:16:23;;;;;;;;;9.75;9.75;;;;;23.29;51.22;102033.88;5078665;27;45436;-72
2021/07/17 01:18:48;;;;;;;;;11.25;9.00;;;;;23.27;51.55;102028.53;5076454;28;59559;-72
2021/07/17 01:21:18;;;;;;;;;9.00;9.00;;;;;23.27;51.81;102033.84;5079394;27;45496;-72
2021/07/17 01:23:44;;;;;;;;;12.50;11.25;;;;;23.23;52.00;102024.16;5078339;28;45260;-72
2021/07/17 01:26:10;;;;;;;;;10.00;9.50;;;;;23.26;51.36;102029.47;5097490;27;45445;-72
2021/07/17 01:28:38;;;;;;;;;11.50;9.75;;;;;23.26;51.42;102026.81;5080033;27;45509;-72
2021/07/17 01:31:03;;;;;;;;;11.00;8.75;;;;;23.26;51.24;102032.13;5080234;27;45385;-72
2021/07/17 01:33:28;;;;;;;;;8.50;8.50;;;;;23.26;51.57;102024.16;5063066;27;58068;-72
2021/07/17 01:35:54;;;;;;;;;13.75;10.75;;;;;23.25;51.30;102019.72;5096909;27;49071;-73
2021/07/17 01:38:19;;;;;;;;;10.00;10.00;;;;;23.26;51.39;102018.84;5080002;27;46196;-72
2021/07/17 01:40:48;;;;;;;;;10.50;10.25;;;;;23.25;51.49;102017.09;5098433;27;45433;-72
2021/07/17 01:43:14;;;;;;;;;11.25;10.25;;;;;23.25;51.50;102017.09;5098023;27;45442;-72
2021/07/17 01:45:39;;;;;;;;;10.25;8.50;;;;;23.24;51.56;102020.63;5079327;27;50103;-73
2021/07/17 01:48:06;;;;;;;;;7.50;7.50;;;;;23.25;51.64;102014.44;5097961;27;46258;-72
2021/07/17 01:50:31;;;;;;;;;12.75;10.75;;;;;23.24;51.40;102011.78;5097860;27;45303;-72
2021/07/17 01:52:57;;;;;;;;;10.25;10.25;;;;;23.22;51.04;102017.13;5080039;27;45482;-72
2021/07/17 01:55:23;;;;;;;;;9.00;8.75;;;;;23.23;51.39;102018.84;5097857;27;45474;-72
2021/07/17 01:57:48;;;;;;;;;13.25;9.75;;;;;23.22;50.92;102019.75;5097488;27;58709;-72
2021/07/17 02:00:14;;;;;;;;;13.00;9.00;;;;;23.22;51.20;102014.47;5079730;27;45429;-72
2021/07/17 02:02:40;;;;;;;;;9.75;9.75;;;;;23.21;51.64;102016.22;5097105;27;45315;-72
2021/07/17 02:05:06;;;;;;;;;9.50;9.00;;;;;23.22;51.56;102022.41;5098291;27;45298;-73
2021/07/17 02:07:32;;;;;;;;;11.50;9.50;;;;;23.21;50.84;102018.88;5097511;27;45463;-73
2021/07/17 02:09:57;;;;;;;;;9.75;8.75;;;;;23.21;51.40;102016.22;5097907;27;45387;-72
2021/07/17 02:12:24;;;;;;;;;11.25;9.00;;;;;23.20;51.27;102022.44;5081468;27;45857;-72
2021/07/17 02:14:51;;;;;;;;;11.50;9.50;;;;;23.21;51.59;102025.97;5101326;27;45307;-73
2021/07/17 02:17:16;;;;;;;;;14.25;9.50;;;;;23.19;51.35;102025.06;5100998;27;45260;-73
2021/07/17 02:19:41;;;;;;;;;15.00;9.75;;;;;23.18;51.29;102021.56;5065602;27;59847;-72
2021/07/17 02:22:07;;;;;;;;;10.00;8.00;;;;;23.20;51.05;102018.88;5092339;27;57171;-73
2021/07/17 02:24:32;;;;;;;;;11.25;9.50;;;;;23.18;51.49;102026.84;5080443;28;49431;-72
2021/07/17 02:26:58;;;;;;;;;12.00;9.00;;;;;23.18;51.44;102021.56;5103740;27;59677;-72
2021/07/17 02:29:24;;;;;;;;;13.75;9.25;;;;;23.17;51.55;102017.13;5082019;27;45396;-73
2021/07/17 02:31:49;;;;;;;;;12.00;9.75;;;;;23.17;51.29;102024.22;5082986;27;45436;-72
2021/07/17 02:34:15;;;;;;;;;12.00;8.25;;;;;23.16;51.17;102017.16;5100376;27;45286;-73
2021/07/17 02:36:40;;;;;;;;;9.75;7.00;;;;;23.16;51.11;102018.06;5080747;27;46029;-73
2021/07/17 02:39:06;;;;;;;;;12.75;10.25;;;;;23.16;51.47;102023.34;5080037;28;60476;-73
2021/07/17 02:41:32;;;;;;;;;11.50;10.75;;;;;23.14;51.30;102011.00;5085440;27;45417;-72
2021/07/17 02:43:57;;;;;;;;;11.00;10.00;;;;;23.15;51.49;102015.38;5101178;27;45296;-72
2021/07/17 02:46:22;;;;;;;;;9.75;9.25;;;;;23.15;51.37;102021.59;5081642;27;59011;-72
2021/07/17 02:48:48;;;;;;;;;7.50;7.50;;;;;23.15;51.47;102020.69;5089126;27;55441;-72
2021/07/17 02:51:13;;;;;;;;;9.25;9.00;;;;;23.14;50.98;102021.59;5079960;28;50493;-72
2021/07/17 02:53:39;;;;;;;;;11.75;9.50;;;;;23.14;51.50;102019.81;5062637;28;45310;-72
2021/07/17 02:56:04;;;;;;;;;9.00;9.00;;;;;23.14;51.37;102013.66;5072985;27;45914;-72
2021/07/17 02:58:30;;;;;;;;;12.00;9.00;;;;;23.14;51.39;102021.59;5065785;27;45472;-72
2021/07/17 03:00:55;;;;;;;;;10.50;9.25;;;;;23.13;51.54;102011.88;5097863;27;45457;-73
2021/07/17 03:03:21;;;;;;;;;11.00;10.00;;;;;23.12;50.95;102015.38;5096349;27;45296;-73
2021/07/17 03:05:47;;;;;;;;;12.00;11.25;;;;;23.11;51.19;102011.84;5078503;27;46797;-73
2021/07/17 03:08:19;;;;;;;;;9.75;9.00;;;;;23.12;51.18;102018.03;5100560;27;45240;-73
2021/07/17 03:10:44;;;;;;;;;11.50;10.75;;;;;23.10;51.60;102020.69;5100844;27;45267;-72
2021/07/17 03:13:10;;;;;;;;;7.75;7.75;;;;;23.11;51.38;102018.91;5100339;27;47849;-72
2021/07/17 03:15:35;;;;;;;;;11.25;9.00;;;;;23.09;51.27;102020.72;5081531;27;46055;-72
2021/07/17 03:18:01;;;;;;;;;12.00;10.25;;;;;23.08;51.23;102021.59;5100267;27;52374;-72
2021/07/17 03:20:26;;;;;;;;;10.00;9.75;;;;;23.08;51.23;102018.94;5100172;27;51593;-72
2021/07/17 03:22:52;;;;;;;;;11.50;9.75;;;;;23.08;51.40;102024.25;5100551;27;45407;-72
2021/07/17 03:25:17;;;;;;;;;9.75;8.75;;;;;23.06;51.32;102016.31;5099644;27;52707;-72
2021/07/17 03:27:42;;;;;;;;;8.25;8.25;;;;;23.06;51.50;102016.31;5099612;27;58491;-73
2021/07/17 03:30:08;;;;;;;;;13.75;8.50;;;;;23.03;51.34;102014.56;5089768;27;49948;-73
2021/07/17 03:32:34;;;;;;;;;10.00;8.75;;;;;23.04;51.37;102012.81;5080097;28;45430;-73
2021/07/17 03:34:59;;;;;;;;;12.75;10.50;;;;;23.04;50.94;102013.66;5078155;28;57018;-73
2021/07/17 03:37:25;;;;;;;;;12.75;10.50;;;;;23.03;51.46;102013.69;5078970;27;45490;-72
2021/07/17 03:39:51;;;;;;;;;10.25;9.75;;;;;23.03;50.83;102017.22;5099776;27;50235;-72
2021/07/17 03:42:16;;;;;;;;;13.25;9.75;;;;;23.03;51.32;102017.22;5051632;28;45258;-72
2021/07/17 03:44:42;;;;;;;;;13.25;9.00;;;;;23.02;51.19;102019.88;5084814;27;45432;-72
2021/07/17 03:47:07;;;;;;;;;12.50;12.50;;;;;23.02;51.10;102019.88;5099103;27;52149;-72
2021/07/17 03:49:32;;;;;;;;;14.50;9.75;;;;;23.01;51.27;102015.44;5100152;27;45301;-72
2021/07/17 03:51:58;;;;;;;;;9.75;8.75;;;;;23.00;51.15;102017.25;5099597;27;47462;-72
2021/07/17 03:54:23;;;;;;;;;12.25;10.25;;;;;23.00;51.62;102009.28;5099168;27;59039;-72
2021/07/17 03:56:49;;;;;;;;;10.75;9.50;;;;;23.00;51.52;102013.72;5098718;27;45223;-72
2021/07/17 03:59:14;;;;;;;;;6.75;6.50;;;;;22.99;51.17;102010.16;5099619;27;51206;-72
2021/07/17 04:01:39;;;;;;;;;11.25;11.25;;;;;22.99;51.10;102015.47;5081729;27;45233;-72
2021/07/17 04:04:07;;;;;;;;;10.00;10.00;;;;;22.99;51.39;102026.06;5099874;27;45479;-72
2021/07/17 04:06:33;;;;;;;;;11.00;10.25;;;;;22.99;51.24;102033.16;5099430;27;45611;-72
2021/07/17 04:08:59;;;;;;;;;9.00;9.00;;;;;22.98;51.13;102023.44;5089387;27;45454;-73
2021/07/17 04:11:24;;;;;;;;;11.00;11.00;;;;;22.96;51.03;102027.88;5098749;27;45664;-72
2021/07/17 04:13:50;;;;;;;;;11.00;10.75;;;;;22.96;51.04;102030.53;5099382;27;47920;-72
2021/07/17 04:16:15;;;;;;;;;12.25;12.00;;;;;22.96;51.35;102036.72;5099636;27;45457;-72
2021/07/17 04:18:40;;;;;;;;;12.50;9.00;;;;;22.95;51.24;102034.94;5080340;27;58253;-72
2021/07/17 04:21:06;;;;;;;;;14.50;9.25;;;;;22.95;51.10;102031.41;5099459;27;46199;-72
2021/07/17 04:23:31;;;;;;;;;10.75;9.25;;;;;22.95;51.11;102031.41;5080000;27;45502;-73
2021/07/17 04:25:57;;;;;;;;;10.25;9.00;;;;;22.93;51.27;102033.19;5078694;28;57183;-72
2021/07/17 04:28:22;;;;;;;;;13.00;11.00;;;;;22.94;51.05;102032.31;5087955;27;49138;-73
2021/07/17 04:30:47;;;;;;;;;13.75;10.00;;;;;22.94;51.24;102032.31;5098956;27;48882;-73
2021/07/17 04:33:13;;;;;;;;;9.75;9.00;;;;;22.93;50.97;102023.47;5080487;27;57568;-73
2021/07/17 04:35:40;;;;;;;;;9.50;8.25;;;;;22.93;51.07;102027.88;5098363;27;45248;-72
2021/07/17 04:38:06;;;;;;;;;12.00;9.00;;;;;22.92;51.21;102032.31;5099005;27;45212;-73
2021/07/17 04:40:31;;;;;;;;;11.00;10.25;;;;;22.92;51.24;102031.44;5098808;27;47336;-72
2021/07/17 04:42:57;;;;;;;;;9.25;9.25;;;;;22.91;51.19;102033.19;5098702;27;57753;-72
2021/07/17 04:45:22;;;;;;;;;11.00;9.75;;;;;22.92;51.18;102028.81;5098573;27;45409;-72
2021/07/17 04:47:47;;;;;;;;;10.00;8.25;;;;;22.90;50.99;102026.13;5098589;27;50338;-72
2021/07/17 04:50:13;;;;;;;;;13.50;8.50;;;;;22.90;51.03;102026.13;5098779;27;45352;-73
2021/07/17 04:52:38;;;;;;;;;10.75;9.00;;;;;22.86;51.08;102022.63;5098938;27;46790;-72
2021/07/17 04:55:04;;;;;;;;;11.50;9.50;;;;;22.90;50.96;102044.69;5079941;27;45461;-72
2021/07/17 04:57:29;;;;;;;;;10.00;10.00;;;;;22.90;51.19;102043.81;5098891;27;45435;-73
2021/07/17 04:59:55;;;;;;;;;9.00;9.00;;;;;22.88;51.17;102044.69;5097312;27;51316;-73
2021/07/17 05:02:20;;;;;;;;;11.00;8.25;;;;;22.88;51.29;102043.84;5098267;27;55566;-73
2021/07/17 05:04:46;;;;;;;;;13.00;11.00;;;;;22.89;51.23;102053.56;5098902;27;45307;-72
2021/07/17 05:07:11;;;;;;;;;14.25;10.00;;;;;22.88;51.61;102057.09;5098285;27;46526;-72
2021/07/17 05:09:36;;;;;;;;;12.00;9.75;;;;;22.87;51.20;102052.66;5098561;27;45523;-72
2021/07/17 05:12:02;;;;;;;;;11.75;10.50;;;;;22.87;51.13;102055.31;5062903;27;61959;-72
2021/07/17 05:14:27;;;;;;;;;16.00;10.50;;;;;22.83;51.38;102050.94;5084762;27;45312;-72
2021/07/17 05:16:53;;;;;;;;;10.00;10.00;;;;;22.87;51.23;102053.56;5077817;28;51232;-72
2021/07/17 05:19:18;;;;;;;;;11.50;10.25;;;;;22.86;51.45;102046.50;5083025;27;45460;-72
2021/07/17 05:21:44;;;;;;;;;9.00;8.50;;;;;22.85;51.22;102051.81;5068234;27;45265;-72
2021/07/17 05:24:09;;;;;;;;;11.75;10.25;;;;;22.85;51.41;102047.38;5078336;28;45367;-72
2021/07/17 05:26:35;;;;;;;;;12.50;10.75;;;;;22.84;51.31;102048.25;5085926;27;53117;-72
2021/07/17 05:29:00;;;;;;;;;11.25;9.50;;;;;22.85;50.99;102057.13;5078405;28;45205;-72
2021/07/17 05:31:25;;;;;;;;;11.50;9.75;;;;;22.84;51.35;102045.63;5096757;27;61110;-72
2021/07/17 05:33:51;;;;;;;;;13.00;9.00;;;;;22.84;51.48;102050.91;5098192;27;45243;-72
2021/07/17 05:36:16;;;;;;;;;12.75;10.00;;;;;22.85;51.08;102041.22;5098029;27;49123;-72
2021/07/17 05:38:42;;;;;;;;;9.00;8.25;;;;;22.85;51.03;102049.16;5080059;27;45718;-72
2021/07/17 05:41:07;;;;;;;;;15.50;11.25;;;;;22.84;51.46;102037.66;5066973;28;57855;-72
2021/07/17 05:43:32;;;;;;;;;14.50;10.75;;;;;22.85;51.08;102046.50;5077099;28;58424;-72
2021/07/17 05:45:58;;;;;;;;;11.75;9.00;;;;;22.85;51.19;102038.56;5076603;28;45372;-72
2021/07/17 05:48:23;;;;;;;;;14.75;10.25;;;;;22.84;51.48;102039.44;5093414;27;45419;-72
2021/07/17 05:50:49;;;;;;;;;11.00;11.00;;;;;22.82;51.36;102043.84;5096892;27;56745;-72
2021/07/17 05:53:14;;;;;;;;;11.50;10.50;;;;;22.83;51.23;102046.53;5079603;27;45362;-72
2021/07/17 05:55:40;;;;;;;;;10.75;10.75;;;;;22.83;51.45;102042.97;5092581;27;45369;-72
2021/07/17 05:58:05;;;;;;;;;13.00;10.00;;;;;22.82;51.35;102039.47;5077307;28;48033;-72
2021/07/17 06:00:30;;;;;;;;;9.25;9.00;;;;;22.83;51.28;102041.22;5045606;27;47710;-73
2021/07/17 06:02:56;;;;;;;;;13.75;9.00;;;;;22.83;51.31;102042.97;5079605;27;51105;-72
2021/07/17 06:05:21;;;;;;;;;10.50;10.00;;;;;22.82;51.16;102044.75;5097906;27;45167;-72
2021/07/17 06:07:47;;;;;;;;;11.00;11.00;;;;;22.83;51.52;102042.97;5079671;27;45427;-72
2021/07/17 06:10:12;;;;;;;;;12.50;10.00;;;;;22.83;51.52;102049.19;5096562;27;60527;-73
2021/07/17 06:12:37;;;;;;;;;16.00;9.25;;;;;22.83;51.41;102045.63;5095036;27;45660;-73
2021/07/17 06:15:04;;;;;;;;;10.75;10.00;;;;;22.82;51.41;102043.84;5097269;27;55495;-72
2021/07/17 06:17:30;;;;;;;;;13.50;9.50;;;;;22.83;51.33;102048.28;5097990;27;45376;-72
2021/07/17 06:19:55;;;;;;;;;14.25;11.25;;;;;22.80;50.95;102043.88;5097290;27;46990;-73
2021/07/17 06:22:21;;;;;;;;;12.50;12.00;;;;;22.81;51.32;102042.13;5078443;27;45512;-73
2021/07/17 06:24:46;;;;;;;;;13.00;13.00;;;;;22.82;51.32;102049.16;5097461;27;56052;-72
2021/07/17 06:27:11;;;;;;;;;10.50;9.75;;;;;22.82;51.30;102046.50;5098009;27;45188;-72
2021/07/17 06:29:37;;;;;;;;;11.75;9.50;;;;;22.82;51.06;102051.81;5085779;27;45983;-73
2021/07/17 06:32:03;;;;;;;;;13.75;10.50;;;;;22.81;51.36;102052.72;5072714;27;45410;-73
2021/07/17 06:34:29;;;;;;;;;13.50;11.50;;;;;22.81;51.18;102056.25;5097705;27;45450;-72
2021/07/17 06:36:54;;;;;;;;;16.75;10.50;;;;;22.81;51.21;102052.72;5069809;28;45467;-72
2021/07/17 06:39:19;;;;;;;;;11.00;11.00;;;;;22.81;51.58;102061.53;5075853;27;45484;-72
2021/07/17 06:41:45;;;;;;;;;10.75;10.00;;;;;22.82;51.20;102073.91;5084590;27;45336;-72
2021/07/17 06:44:10;;;;;;;;;11.00;11.00;;;;;22.81;51.33;102063.31;5096450;27;45380;-72
2021/07/17 06:46:36;;;;;;;;;13.50;11.00;;;;;22.82;51.48;102067.72;5097616;27;45457;-72
2021/07/17 06:49:01;;;;;;;;;12.00;11.50;;;;;22.81;51.43;102073.94;5097172;27;46166;-72
2021/07/17 06:51:26;;;;;;;;;13.75;12.00;;;;;22.82;51.65;102068.63;5061120;27;57700;-72
2021/07/17 06:53:52;;;;;;;;;10.75;10.00;;;;;22.81;51.70;102068.63;5077849;27;53678;-72
2021/07/17 06:56:17;;;;;;;;;13.50;12.25;;;;;22.82;51.42;102075.66;5096060;27;50798;-73
2021/07/17 06:58:43;;;;;;;;;13.00;13.00;;;;;22.82;51.49;102070.38;5097878;27;45964;-72
2021/07/17 07:01:08;;;;;;;;;17.00;12.25;;;;;22.81;51.25;102068.63;5069247;27;59693;-73
2021/07/17 07:03:34;;;;;;;;;12.00;12.00;;;;;22.81;51.46;102079.22;5081415;27;51536;-72
2021/07/17 07:05:59;;;;;;;;;14.00;12.50;;;;;22.81;51.73;102074.81;5100407;27;45462;-71
2021/07/17 07:08:25;;;;;;;;;11.00;10.00;;;;;22.80;51.55;102073.03;5070985;28;45423;-71
2021/07/17 07:10:51;;;;;;;;;13.75;11.75;;;;;22.81;51.63;102073.94;5089858;27;45457;-72
2021/07/17 07:13:16;;;;;;;;;13.75;12.00;;;;;22.80;51.80;102061.56;5106694;27;45458;-72
2021/07/17 07:15:41;;;;;;;;;13.25;11.75;;;;;22.81;51.47;102072.16;5103054;27;45448;-72
2021/07/17 07:18:07;;;;;;;;;13.50;10.75;;;;;22.80;51.50;102074.81;5106256;27;45936;-72
2021/07/17 07:20:33;;;;;;;;;14.25;11.50;;;;;22.81;51.48;102081.88;5082076;27;45304;-71
2021/07/17 07:22:59;;;;;;;;;12.75;11.25;;;;;22.81;51.75;102082.75;5100310;27;45347;-71
2021/07/17 07:25:24;;;;;;;;;12.00;11.75;;;;;22.81;51.46;102084.53;5083190;27;45308;-71
2021/07/17 07:27:50;;;;;;;;;12.75;12.25;;;;;22.82;51.61;102086.28;5115907;27;57395;-71
2021/07/17 07:30:15;;;;;;;;;14.25;12.00;;;;;22.79;51.43;102092.50;5120739;27;45317;-71
2021/07/17 07:32:41;;;;;;;;;13.00;12.00;;;;;22.81;51.63;102098.66;5088358;27;45528;-71
2021/07/17 07:35:06;;;;;;;;;10.75;10.75;;;;;22.82;51.76;102099.53;5100020;27;45519;-71
2021/07/17 07:37:32;;;;;;;;;18.00;11.25;;;;;22.82;51.58;102091.56;5100029;27;46336;-71
2021/07/17 07:39:57;;;;;;;;;13.00;12.25;;;;;22.81;51.69;102092.50;5099444;27;51639;-71
2021/07/17 07:42:23;;;;;;;;;11.75;11.75;;;;;22.81;51.56;102100.44;5100330;27;45261;-72
2021/07/17 07:44:50;;;;;;;;;15.25;11.50;;;;;22.82;51.95;102111.03;5081180;27;45532;-71
2021/07/17 07:47:15;;;;;;;;;15.75;14.00;;;;;22.83;51.91;102106.59;5081433;27;45402;-72
2021/07/17 07:49:41;;;;;;;;;14.50;12.00;;;;;22.83;51.61;102098.66;5099367;27;56662;-71
2021/07/17 07:52:06;;;;;;;;;11.75;11.75;;;;;22.83;51.69;102098.66;5099538;27;45340;-71
2021/07/17 07:54:32;;;;;;;;;11.00;9.25;;;;;22.82;51.62;102102.19;5100058;27;45406;-71
2021/07/17 07:56:57;;;;;;;;;12.50;11.75;;;;;22.83;51.74;102106.59;5081161;27;55944;-71
2021/07/17 07:59:23;;;;;;;;;12.00;11.75;;;;;22.84;51.75;102105.72;5081438;27;45250;-71
2021/07/17 08:01:48;;;;;;;;;11.25;11.25;;;;;22.84;51.86;102113.66;5099534;27;45315;-71
2021/07/17 08:04:13;;;;;;;;;14.50;13.25;;;;;22.83;51.75;102118.09;5099421;27;45544;-71
2021/07/17 08:06:39;;;;;;;;;15.50;12.75;;;;;22.83;51.84;102114.56;5080793;27;63477;-71
2021/07/17 08:09:04;;;;;;;;;12.00;12.00;;;;;22.83;51.49;102119.84;5098774;27;47088;-72
2021/07/17 08:11:29;;;;;;;;;15.25;12.50;;;;;22.85;51.74;102118.09;5099654;27;45917;-72
2021/07/17 08:13:55;;;;;;;;;11.00;10.50;;;;;22.84;51.80;102116.31;5099102;27;47078;-72
2021/07/17 08:16:21;;;;;;;;;13.50;12.00;;;;;22.84;52.09;102117.19;5098634;27;60954;-72
2021/07/17 08:18:46;;;;;;;;;16.00;11.75;;;;;22.84;51.99;102103.94;5099185;27;45427;-72
2021/07/17 08:21:12;;;;;;;;;15.75;12.00;;;;;22.85;51.97;102110.13;5099707;27;45331;-71
2021/07/17 08:23:37;;;;;;;;;14.75;11.25;;;;;22.84;51.98;102106.59;5099869;27;45352;-73
2021/07/17 08:26:02;;;;;;;;;14.75;12.50;;;;;22.85;52.00;102099.53;5096267;27;51361;-73
2021/07/17 08:28:28;;;;;;;;;12.50;10.25;;;;;22.85;51.81;102102.19;5113844;27;57325;-73
2021/07/17 08:30:53;;;;;;;;;15.00;15.00;;;;;22.85;51.95;102111.00;5098979;27;52776;-72
2021/07/17 08:33:19;;;;;;;;;14.50;13.00;;;;;22.85;51.61;102097.75;5098697;27;45371;-73
2021/07/17 08:35:44;;;;;;;;;16.75;13.50;;;;;22.85;52.14;102103.06;5097880;27;46478;-71
2021/07/17 08:38:09;;;;;;;;;17.75;15.00;;;;;22.85;51.70;102103.06;5098709;27;45166;-73
2021/07/17 08:40:35;;;;;;;;;19.75;15.25;;;;;22.85;52.26;102102.19;5080091;27;45688;-77
2021/07/17 08:43:00;;;;;;;;;14.25;12.50;;;;;22.86;51.96;102103.94;5080344;27;45357;-79
2021/07/17 08:45:26;;;;;;;;;16.50;11.25;;;;;22.87;52.18;102105.69;5098411;27;45304;-74
2021/07/17 08:47:52;;;;;;;;;16.25;12.25;;;;;22.88;52.35;102108.34;5098552;27;45397;-70
2021/07/17 08:50:21;;;;;;;;;15.75;14.00;;;;;22.88;52.42;102103.03;5097569;27;45239;-73
2021/07/17 08:52:48;;;;;;;;;18.25;14.75;;;;;22.90;52.39;102110.97;5099115;27;45355;-73
2021/07/17 08:55:13;;;;;;;;;15.25;14.25;;;;;22.92;52.63;102111.88;5097506;27;46210;-74
2021/07/17 08:57:40;;;;;;;;;31.00;25.00;;;;;22.91;51.85;102106.56;5098568;27;45173;-75
2021/07/17 09:00:08;;;;;;;;;17.75;15.25;;;;;22.80;52.03;102106.63;5080069;27;45430;-84
2021/07/17 09:02:38;;;;;;;;;18.00;14.25;;;;;22.71;52.48;102102.25;5098468;27;45347;-74
2021/07/17 09:05:08;;;;;;;;;14.25;14.25;;;;;22.75;52.33;102105.75;5098136;27;46161;-74
2021/07/17 09:07:33;;;;;;;;;14.75;12.75;;;;;22.77;52.64;102104.88;5098142;27;45523;-74
2021/07/17 09:09:58;;;;;;;;;15.00;15.00;;;;;22.80;52.83;102096.03;5098774;27;45447;-74
2021/07/17 09:12:25;;;;;;;;;16.00;12.25;;;;;22.80;52.38;102094.25;5097365;27;48891;-74
2021/07/17 09:14:50;;;;;;;;;13.50;13.50;;;;;22.84;52.63;102103.06;5063272;27;45537;-74
2021/07/17 09:17:23;;;;;;;;;13.00;11.50;;;;;22.84;52.67;102095.13;5097440;27;45335;-74
2021/07/17 09:19:56;;;;;;;;;15.25;13.00;;;;;22.86;52.74;102095.97;5098069;27;45292;-74
2021/07/17 09:22:35;;;;;;;;;18.25;15.25;;;;;22.87;52.58;102095.09;5098522;27;45248;-74
2021/07/17 09:25:11;;;;;;;;;17.75;14.00;;;;;22.88;53.12;102092.44;5098028;27;45517;-74
2021/07/17 09:27:36;;;;;;;;;15.75;14.00;;;;;22.89;52.83;102085.38;5094340;27;45339;-74
2021/07/17 09:30:03;;;;;;;;;17.50;13.50;;;;;22.91;52.43;102088.00;5098113;27;45869;-74
2021/07/17 09:32:28;;;;;;;;;12.75;12.75;;;;;22.92;52.43;102081.81;5098118;27;45246;-74
2021/07/17 09:34:54;;;;;;;;;14.00;11.00;;;;;22.93;52.73;102079.16;5098044;27;46001;-73
2021/07/17 09:37:22;;;;;;;;;16.00;14.00;;;;;22.93;52.71;102075.63;5062278;27;59679;-74
2021/07/17 09:39:49;;;;;;;;;15.75;13.00;;;;;22.95;52.54;102074.72;5097305;27;45400;-74
2021/07/17 09:42:16;;;;;;;;;11.75;10.75;;;;;22.94;52.60;102069.44;5098413;27;45343;-74
2021/07/17 09:44:42;;;;;;;;;13.25;11.00;;;;;22.97;52.53;102074.69;5097710;27;46156;-74
2021/07/17 09:47:15;;;;;;;;;16.25;11.75;;;;;22.95;52.27;102076.50;5097696;27;45327;-74
2021/07/17 09:49:40;;;;;;;;;13.00;11.75;;;;;22.99;52.57;102070.28;5079060;27;45802;-74
2021/07/17 09:52:10;;;;;;;;;12.00;11.25;;;;;22.99;52.12;102071.16;5079589;27;47693;-73
2021/07/17 09:54:37;;;;;;;;;16.00;12.50;;;;;22.99;53.08;102081.75;5079290;27;45212;-74
2021/07/17 09:57:03;;;;;;;;;15.00;11.00;;;;;23.00;53.44;102072.91;5096857;27;45344;-71
2021/07/17 09:59:28;;;;;;;;;15.50;13.00;;;;;23.01;53.50;102077.34;5079843;27;45316;-71
2021/07/17 10:01:54;;;;;;;;;21.25;16.75;;;;;22.99;53.09;102073.81;5097765;27;45352;-71
2021/07/17 10:04:19;;;;;;;;;20.00;17.25;;;;;22.98;54.10;102077.34;5097112;27;55893;-71
2021/07/17 10:06:46;;;;;;;;;26.00;17.75;;;;;22.95;53.77;102076.50;5097694;27;45334;-64
2021/07/17 10:09:11;;;;;;;;;20.00;17.00;;;;;22.90;52.95;102078.28;5097647;27;45395;-64
2021/07/17 10:11:37;;;;;;;;;21.75;17.25;;;;;22.84;53.26;102081.84;5098043;27;45419;-63
2021/07/17 10:14:20;;;;;;;;;20.75;18.75;;;;;22.78;53.36;102077.47;5097045;27;57585;-64
2021/07/17 10:16:48;;;;;;;;;23.75;20.75;;;;;22.72;53.95;102073.97;5097636;27;45282;-64
2021/07/17 10:19:15;;;;;;;;;25.25;20.00;;;;;22.67;54.80;102074.88;5097234;27;45332;-64
2021/07/17 10:21:40;;;;;;;;;19.00;17.75;;;;;22.63;54.25;102074.91;5097697;27;45408;-64
2021/07/17 10:24:05;;;;;;;;;24.25;19.25;;;;;22.61;54.67;102081.97;5097403;27;46367;-64
2021/07/17 10:26:31;;;;;;;;;21.50;18.75;;;;;22.59;54.50;102084.63;5078800;27;45399;-64
2021/07/17 10:29:03;;;;;;;;;23.50;16.75;;;;;22.57;54.93;102081.09;5097384;27;45570;-64
2021/07/17 10:31:29;;;;;;;;;22.50;19.00;;;;;22.54;54.37;102081.09;5097525;27;45474;-64
2021/07/17 10:33:54;;;;;;;;;21.75;19.50;;;;;22.52;53.96;102078.47;5099932;27;45208;-64
2021/07/17 10:36:20;;;;;;;;;24.25;20.25;;;;;22.51;54.09;102076.69;5099614;27;57120;-68
2021/07/17 10:38:45;;;;;;;;;24.50;21.50;;;;;22.47;54.29;102074.94;5082720;27;45434;-68
2021/07/17 10:41:13;;;;;;;;;23.50;19.75;;;;;22.46;55.06;102072.31;5117155;27;45319;-68
2021/07/17 10:43:39;;;;;;;;;30.75;21.50;;;;;22.44;55.26;102076.75;5082336;27;47206;-68
2021/07/17 10:46:05;;;;;;;;;25.25;18.50;;;;;22.42;54.69;102071.47;5079170;28;45447;-68
2021/07/17 10:48:34;;;;;;;;;26.00;21.25;;;;;22.41;54.66;102069.69;5080378;27;47463;-68
2021/07/17 10:51:01;;;;;;;;;27.25;22.50;;;;;22.41;54.68;102071.44;5100738;27;45370;-69
2021/07/17 10:53:50;;;;;;;;;24.75;20.00;;;;;22.39;55.07;102060.84;5100954;27;46197;-69
2021/07/17 10:56:28;;;;;;;;;23.00;21.25;;;;;22.38;55.06;102058.22;5095069;27;45419;-68
2021/07/17 10:58:57;;;;;;;;;22.75;21.25;;;;;22.40;55.06;102053.81;5097602;27;45557;-68
2021/07/17 11:01:22;;;;;;;;;24.75;19.25;;;;;22.40;54.82;102053.81;5080382;27;45344;-68
2021/07/17 11:03:48;;;;;;;;;24.00;18.75;;;;;22.41;55.59;102047.59;5099259;27;45577;-68
2021/07/17 11:06:33;;;;;;;;;23.00;19.00;;;;;22.44;55.43;102063.50;5099474;27;45903;-66
2021/07/17 11:09:23;;;;;;;;;26.25;20.25;;;;;22.45;54.76;102057.28;5080264;28;45376;-70